Guarenas, Venezuela
Current Conditions -  °F | °C
As of 7:00 AM on Sunday 21 Dec 2014 (Local Time) from SVMI Reporting Station
Few Clouds Few Clouds  
Wind Chill: 79°   Ceiling: Unl
Heat Index: 81°   Visibility: 6mi
Dew Point: 68°   Wind: 5mph
Humidity: 69%   Direction: 50°NE
Pressure: 29.97"   Gusts: NA
Location:  10.47°N, 66.62°W
Report Text: SVMI 211100Z 05004KT 9999 FEW016 26/20 Q1015 NOSIG
Loading
Personal Weather Stations






























Interactive Weather Map New forecast layout! Learn more

10-Day Weather Forecast

Advertisements
Track Severe Weather on mobile